createdAt,value
2023-03-26T00:01:58.520Z,99807.56
2023-03-26T00:05:01.100Z,99818.84
2023-03-26T00:08:03.945Z,99796.69
2023-03-26T00:11:08.707Z,99801.16
2023-03-26T00:14:14.078Z,99808.88
2023-03-26T00:17:16.827Z,99802.22
2023-03-26T00:20:19.392Z,99796.97
2023-03-26T00:23:22.218Z,99788.31
2023-03-26T00:26:24.670Z,99791.22
2023-03-26T00:29:28.145Z,99794.66
2023-03-26T00:32:31.489Z,99796.38
2023-03-26T00:35:38.416Z,99795.66
2023-03-26T00:38:43.014Z,99791.88
2023-03-26T00:41:45.860Z,99801.03
2023-03-26T00:44:51.185Z,99778.22
2023-03-26T00:47:53.750Z,99790.91
2023-03-26T00:50:57.593Z,99782.69
2023-03-26T00:54:00.785Z,99779.31
2023-03-26T00:57:06.964Z,99781.94
2023-03-26T01:00:15.388Z,99769.56
2023-03-26T01:03:27.784Z,99761.50
2023-03-26T01:06:36.011Z,99765.97
2023-03-26T01:09:50.474Z,99770.97
2023-03-26T01:12:53.103Z,99766.50
2023-03-26T01:15:57.914Z,99773.19
2023-03-26T01:19:00.917Z,99778.91
2023-03-26T01:22:05.184Z,99783.94
2023-03-26T01:25:09.649Z,99777.41
2023-03-26T01:28:12.890Z,99774.34
2023-03-26T01:31:38.744Z,99779.06
2023-03-26T01:35:00.114Z,99781.69
2023-03-26T01:38:10.912Z,99782.50
2023-03-26T01:41:17.724Z,99784.63
2023-03-26T01:44:59.604Z,99787.97
2023-03-26T01:48:02.451Z,99787.41
2023-03-26T01:51:06.571Z,99781.28
2023-03-26T01:54:31.544Z,99781.34
2023-03-26T01:57:43.196Z,99769.66
2023-03-26T02:01:24.677Z,99777.75
2023-03-26T02:04:43.282Z,99774.66
2023-03-26T02:08:12.271Z,99783.81
2023-03-26T02:11:16.661Z,99780.09
2023-03-26T02:14:19.441Z,99789.91
2023-03-26T02:17:24.524Z,99791.75
2023-03-26T02:20:30.407Z,99799.69
2023-03-26T02:23:35.955Z,99808.94
2023-03-26T02:26:38.985Z,99795.66
2023-03-26T02:29:47.797Z,99786.22
2023-03-26T02:32:52.331Z,99787.28
2023-03-26T02:36:02.699Z,99786.69
2023-03-26T02:39:05.513Z,99784.31
2023-03-26T02:42:12.703Z,99784.59
2023-03-26T02:45:22.214Z,99785.28
2023-03-26T02:48:44.055Z,99778.16
2023-03-26T02:51:56.391Z,99775.69
2023-03-26T02:55:02.391Z,99767.31
2023-03-26T02:58:05.090Z,99763.13
2023-03-26T03:01:11.912Z,99764.25
2023-03-26T03:04:25.498Z,99769.69
2023-03-26T03:07:29.216Z,99778.16
2023-03-26T03:10:32.941Z,99781.25
2023-03-26T03:13:56.634Z,99781.66
2023-03-26T03:17:01.928Z,99776.31
2023-03-26T03:20:07.394Z,99771.03
2023-03-26T03:23:11.356Z,99775.34
2023-03-26T03:26:16.669Z,99782.88
2023-03-26T03:29:25.240Z,99788.75
2023-03-26T03:32:28.094Z,99785.38
2023-03-26T03:35:35.642Z,99780.94
2023-03-26T03:38:39.643Z,99780.09
2023-03-26T03:41:42.338Z,99773.84
2023-03-26T03:44:49.403Z,99779.28
2023-03-26T03:48:10.504Z,99784.97
2023-03-26T03:51:18.483Z,99806.41
2023-03-26T03:54:31.344Z,99808.50
2023-03-26T03:58:03.833Z,99793.25
2023-03-26T04:01:07.480Z,99796.00
2023-03-26T04:04:25.848Z,99807.38
2023-03-26T04:07:48.741Z,99808.84
2023-03-26T04:11:13.455Z,99812.47
2023-03-26T04:14:39.467Z,99815.81
2023-03-26T04:17:49.119Z,99807.16
2023-03-26T04:20:55.706Z,99804.22
2023-03-26T04:24:02.765Z,99803.53
2023-03-26T04:27:28.390Z,99801.34
2023-03-26T04:30:42.703Z,99796.19
2023-03-26T04:34:13.735Z,99795.75
2023-03-26T04:37:34.666Z,99797.41
2023-03-26T04:40:49.635Z,99795.16
2023-03-26T04:44:17.154Z,99796.50
2023-03-26T04:47:29.461Z,99812.63
2023-03-26T04:50:32.004Z,99805.75
2023-03-26T04:53:35.979Z,99811.41
2023-03-26T04:56:54.394Z,99803.97
2023-03-26T05:00:16.645Z,99812.63
2023-03-26T05:03:22.588Z,99809.25
2023-03-26T05:06:28.072Z,99808.94
2023-03-26T05:09:31.887Z,99802.50
2023-03-26T05:12:49.598Z,99794.25
2023-03-26T05:15:56.716Z,99791.84
2023-03-26T05:19:15.097Z,99798.56
2023-03-26T05:22:18.816Z,99786.09
2023-03-26T05:25:44.654Z,99794.50
2023-03-26T05:28:57.090Z,99793.09
2023-03-26T05:32:04.679Z,99788.06
2023-03-26T05:35:07.703Z,99779.94
2023-03-26T05:38:10.940Z,99786.09
2023-03-26T05:41:13.768Z,99782.81
2023-03-26T05:44:19.586Z,99790.22
2023-03-26T05:47:22.453Z,99791.50
2023-03-26T05:50:25.530Z,99792.56
2023-03-26T05:53:33.848Z,99798.31
2023-03-26T05:56:55.032Z,99794.66
2023-03-26T06:00:16.470Z,99787.38
2023-03-26T06:03:23.134Z,99793.66
2023-03-26T06:06:46.322Z,99789.63
2023-03-26T06:09:49.239Z,99787.84
2023-03-26T06:12:51.877Z,99775.63
2023-03-26T06:15:55.371Z,99785.25
2023-03-26T06:19:20.886Z,99778.00
2023-03-26T06:22:44.062Z,99780.50
2023-03-26T06:25:56.448Z,99774.63
2023-03-26T06:29:25.379Z,99775.91
2023-03-26T06:32:46.356Z,99775.75
2023-03-26T06:35:54.241Z,99776.16
2023-03-26T06:38:58.267Z,99773.72
2023-03-26T06:42:01.510Z,99776.22
2023-03-26T06:45:23.491Z,99780.88
2023-03-26T06:48:49.470Z,99781.50
2023-03-26T06:52:11.046Z,99781.97
2023-03-26T06:55:19.939Z,99772.72
2023-03-26T06:58:38.750Z,99774.59
2023-03-26T07:02:00.870Z,99762.25
2023-03-26T07:05:22.668Z,99767.22
2023-03-26T07:08:44.068Z,99758.22
2023-03-26T07:12:12.869Z,99758.00
2023-03-26T07:15:24.218Z,99764.56
2023-03-26T07:18:45.528Z,99757.50
2023-03-26T07:21:54.231Z,99767.34
2023-03-26T07:25:20.608Z,99769.22
2023-03-26T07:29:04.007Z,99771.19
2023-03-26T07:32:38.422Z,99787.09
2023-03-26T07:36:08.466Z,99789.91
2023-03-26T07:39:42.392Z,99782.84
2023-03-26T07:43:01.975Z,99800.16
2023-03-26T07:46:29.472Z,99785.66
2023-03-26T07:49:58.039Z,99778.78
2023-03-26T07:53:20.876Z,99780.28
2023-03-26T07:56:41.419Z,99774.13
2023-03-26T08:00:14.315Z,99781.13
2023-03-26T08:03:54.765Z,99789.78
2023-03-26T08:08:06.694Z,99786.97
2023-03-26T08:11:30.202Z,99789.31
2023-03-26T08:14:50.277Z,99773.44
2023-03-26T08:17:57.228Z,99767.72
2023-03-26T08:21:08.114Z,99774.47
2023-03-26T08:24:22.956Z,99763.09
2023-03-26T08:27:44.191Z,99758.56
2023-03-26T08:30:47.230Z,99759.25
2023-03-26T08:33:50.249Z,99762.41
2023-03-26T08:36:52.798Z,99763.19
2023-03-26T08:39:55.810Z,99759.47
2023-03-26T08:43:29.085Z,99760.59
2023-03-26T08:46:54.136Z,99759.72
2023-03-26T08:50:12.585Z,99754.25
2023-03-26T08:53:18.805Z,99756.81
2023-03-26T08:56:44.725Z,99744.44
2023-03-26T09:00:20.155Z,99746.88
2023-03-26T09:03:49.238Z,99746.47
2023-03-26T09:07:12.411Z,99743.72
2023-03-26T09:10:37.413Z,99734.47
2023-03-26T09:14:14.047Z,99728.34
2023-03-26T09:17:35.167Z,99733.06
2023-03-26T09:21:10.948Z,99737.97
2023-03-26T09:24:19.197Z,99730.09
2023-03-26T09:27:24.565Z,99727.56
2023-03-26T09:30:42.989Z,99724.72
2023-03-26T09:34:08.623Z,99722.13
2023-03-26T09:37:57.499Z,99714.06
2023-03-26T09:41:14.204Z,99712.84
2023-03-26T09:44:41.039Z,99711.50
2023-03-26T09:48:05.713Z,99700.59
2023-03-26T09:51:31.273Z,99697.00
2023-03-26T09:54:55.309Z,99687.75
2023-03-26T09:58:34.846Z,99675.72
2023-03-26T10:01:50.888Z,99659.47
2023-03-26T10:05:15.632Z,99655.56
2023-03-26T10:08:47.604Z,99648.13
2023-03-26T10:11:50.722Z,99639.03
2023-03-26T10:15:21.331Z,99657.81
2023-03-26T10:18:29.997Z,99660.78
2023-03-26T10:21:38.811Z,99645.47
2023-03-26T10:25:00.555Z,99657.03
2023-03-26T10:28:13.523Z,99659.94
2023-03-26T10:31:34.914Z,99662.59
2023-03-26T10:34:48.420Z,99698.50
2023-03-26T10:38:10.328Z,99698.63
2023-03-26T10:41:18.637Z,99706.81
2023-03-26T10:44:43.405Z,99673.03
2023-03-26T10:47:51.978Z,99692.94
2023-03-26T10:51:19.570Z,99656.03
2023-03-26T10:54:32.628Z,99660.06
2023-03-26T10:57:41.568Z,99626.88
2023-03-26T11:00:56.222Z,99618.97
2023-03-26T11:04:14.698Z,99609.44
2023-03-26T11:07:25.580Z,99601.94
2023-03-26T11:10:37.781Z,99587.88
2023-03-26T11:13:55.349Z,99596.81
2023-03-26T11:17:40.900Z,99596.78
2023-03-26T11:20:51.046Z,99593.44
2023-03-26T11:24:11.849Z,99580.94
2023-03-26T11:27:36.414Z,99562.34
2023-03-26T11:30:59.879Z,99542.34
2023-03-26T11:34:10.409Z,99545.03
2023-03-26T11:37:24.403Z,99546.13
2023-03-26T11:40:37.008Z,99541.25
2023-03-26T11:43:39.926Z,99528.22
2023-03-26T11:46:45.887Z,99506.59
2023-03-26T11:49:52.526Z,99495.72
2023-03-26T11:53:03.392Z,99482.28
2023-03-26T11:56:15.147Z,99476.84
2023-03-26T11:59:21.778Z,99471.09
2023-03-26T12:02:45.808Z,99461.75
2023-03-26T12:05:58.330Z,99447.22
2023-03-26T12:09:01.558Z,99437.59
2023-03-26T12:12:06.279Z,99434.22
2023-03-26T12:15:19.236Z,99434.56
2023-03-26T12:18:28.052Z,99431.97
2023-03-26T12:21:30.738Z,99422.06
2023-03-26T12:24:36.097Z,99422.41
2023-03-26T12:27:48.585Z,99419.66
2023-03-26T12:30:59.098Z,99408.63
2023-03-26T12:34:14.017Z,99401.44
2023-03-26T12:37:44.611Z,99399.56
2023-03-26T12:40:48.091Z,99400.25
2023-03-26T12:44:53.798Z,99396.22
2023-03-26T12:47:59.506Z,99373.88
2023-03-26T12:51:01.972Z,99370.47
2023-03-26T12:54:15.590Z,99366.94
2023-03-26T12:57:22.756Z,99376.88
2023-03-26T13:00:35.145Z,99375.47
2023-03-26T13:04:07.215Z,99370.28
2023-03-26T13:07:37.876Z,99379.63
2023-03-26T13:10:43.226Z,99341.41
2023-03-26T13:14:39.821Z,99335.28
2023-03-26T13:18:14.898Z,99324.63
2023-03-26T13:21:34.652Z,99314.72
2023-03-26T13:25:09.792Z,99301.97
2023-03-26T13:28:31.663Z,99297.13
2023-03-26T13:32:09.378Z,99309.63
2023-03-26T13:35:36.942Z,99303.97
2023-03-26T13:39:05.126Z,99285.34
2023-03-26T13:42:59.195Z,99295.56
2023-03-26T13:46:05.707Z,99295.44
2023-03-26T13:49:16.692Z,99266.00
2023-03-26T13:52:19.718Z,99285.34
2023-03-26T13:55:30.439Z,99279.41
2023-03-26T13:58:43.263Z,99280.50
2023-03-26T14:02:02.299Z,99264.47
2023-03-26T14:05:17.556Z,99286.34
2023-03-26T14:08:27.974Z,99252.66
2023-03-26T14:11:49.038Z,99234.03
2023-03-26T14:15:33.395Z,99225.53
2023-03-26T14:19:05.026Z,99220.88
2023-03-26T14:22:37.549Z,99225.03
2023-03-26T14:25:54.641Z,99226.16
2023-03-26T14:29:24.523Z,99227.75
2023-03-26T14:32:59.263Z,99211.75
2023-03-26T14:36:20.063Z,99203.78
2023-03-26T14:39:53.445Z,99210.06
2023-03-26T14:43:14.873Z,99209.47
2023-03-26T14:46:55.452Z,99208.28
2023-03-26T14:50:36.259Z,99218.25
2023-03-26T14:53:47.620Z,99188.50
2023-03-26T14:57:13.046Z,99197.63
2023-03-26T15:00:49.755Z,99178.19
2023-03-26T15:04:11.463Z,99183.56
2023-03-26T15:07:26.110Z,99162.66
2023-03-26T15:10:57.076Z,99177.63
2023-03-26T15:14:24.420Z,99163.28
2023-03-26T15:18:09.360Z,99155.22
2023-03-26T15:21:37.756Z,99159.66
2023-03-26T15:25:20.888Z,99153.75
2023-03-26T15:28:51.471Z,99145.16
2023-03-26T15:32:03.566Z,99147.03
2023-03-26T15:35:21.630Z,99135.06
2023-03-26T15:38:46.861Z,99131.44
2023-03-26T15:42:18.451Z,99130.84
2023-03-26T15:45:48.354Z,99143.44
2023-03-26T15:49:12.445Z,99128.53
2023-03-26T15:52:40.570Z,99131.00
2023-03-26T15:56:08.336Z,99128.09
2023-03-26T15:59:12.239Z,99122.72
2023-03-26T16:02:35.208Z,99111.34
2023-03-26T16:06:07.806Z,99111.50
2023-03-26T16:09:32.739Z,99111.25
2023-03-26T16:13:15.311Z,99097.75
2023-03-26T16:16:24.684Z,99090.28
2023-03-26T16:19:49.822Z,99074.53
2023-03-26T16:23:01.886Z,99075.72
2023-03-26T16:26:06.510Z,99071.97
2023-03-26T16:29:22.357Z,99050.25
2023-03-26T16:32:31.548Z,99055.09
2023-03-26T16:36:02.517Z,99058.50
2023-03-26T16:39:06.024Z,99054.31
2023-03-26T16:42:31.409Z,99052.09
2023-03-26T16:45:46.505Z,99064.34
2023-03-26T16:49:03.891Z,99069.56
2023-03-26T16:52:36.738Z,99062.50
2023-03-26T16:55:47.561Z,99073.75
2023-03-26T16:59:07.640Z,99061.59
2023-03-26T17:02:21.759Z,99057.84
2023-03-26T17:05:42.000Z,99059.38
2023-03-26T17:08:57.029Z,99072.47
2023-03-26T17:12:15.847Z,99072.72
2023-03-26T17:15:34.593Z,99066.88
2023-03-26T17:18:54.551Z,99060.06
2023-03-26T17:22:14.816Z,99070.19
2023-03-26T17:25:33.618Z,99069.81
2023-03-26T17:28:56.447Z,99067.53
2023-03-26T17:32:15.539Z,99072.88
2023-03-26T17:35:38.040Z,99075.81
2023-03-26T17:38:44.905Z,99067.16
2023-03-26T17:42:21.862Z,99066.78
2023-03-26T17:45:32.109Z,99065.22
2023-03-26T17:48:39.019Z,99058.03
2023-03-26T17:52:36.346Z,99068.09
2023-03-26T17:55:44.326Z,99061.72
2023-03-26T17:58:53.273Z,99060.34
2023-03-26T18:02:03.750Z,99061.63
2023-03-26T18:05:13.275Z,99060.81
2023-03-26T18:08:55.566Z,99062.53
2023-03-26T18:12:26.643Z,99066.03
2023-03-26T18:15:48.653Z,99064.56
2023-03-26T18:19:00.303Z,99052.47
2023-03-26T18:22:07.516Z,99061.09
2023-03-26T18:25:32.793Z,99054.47
2023-03-26T18:28:42.604Z,99056.50
2023-03-26T18:31:49.504Z,99054.28
2023-03-26T18:35:01.896Z,99047.63
2023-03-26T18:38:06.045Z,99036.25
2023-03-26T18:41:22.427Z,99034.47
2023-03-26T18:44:26.736Z,99034.47
2023-03-26T18:47:31.312Z,99027.47
2023-03-26T18:50:40.079Z,99027.22
2023-03-26T18:53:50.948Z,99014.50
2023-03-26T18:57:16.433Z,99014.72
2023-03-26T19:00:28.152Z,98994.13
2023-03-26T19:03:40.421Z,98992.03
2023-03-26T19:06:45.065Z,98995.28
2023-03-26T19:09:56.935Z,98992.81
2023-03-26T19:13:04.724Z,98998.41
2023-03-26T19:16:36.722Z,98989.56
2023-03-26T19:19:43.284Z,98992.22
2023-03-26T19:22:49.119Z,98980.63
2023-03-26T19:25:58.901Z,98977.72
2023-03-26T19:29:03.652Z,98973.69
2023-03-26T19:32:49.001Z,98973.94
2023-03-26T19:36:21.917Z,98970.69
2023-03-26T19:39:37.556Z,98960.66
2023-03-26T19:42:45.030Z,98946.19
2023-03-26T19:46:00.112Z,98938.41
2023-03-26T19:49:06.573Z,98935.75
2023-03-26T19:52:22.779Z,98931.16
2023-03-26T19:55:28.948Z,98923.91
2023-03-26T19:58:33.486Z,98912.41
2023-03-26T20:01:37.798Z,98909.41
2023-03-26T20:04:42.926Z,98899.13
2023-03-26T20:07:47.037Z,98886.38
2023-03-26T20:10:57.722Z,98884.34
2023-03-26T20:14:02.566Z,98884.25
2023-03-26T20:17:22.571Z,98876.06
2023-03-26T20:20:27.697Z,98870.94
2023-03-26T20:23:31.211Z,98869.91
2023-03-26T20:26:38.602Z,98858.25
2023-03-26T20:29:43.214Z,98848.44
2023-03-26T20:32:47.962Z,98838.53
2023-03-26T20:35:55.941Z,98837.44
2023-03-26T20:38:59.864Z,98844.59
2023-03-26T20:42:03.046Z,98837.25
2023-03-26T20:45:18.272Z,98836.50
2023-03-26T20:48:22.189Z,98828.13
2023-03-26T20:51:28.998Z,98825.56
2023-03-26T20:54:32.098Z,98822.69
2023-03-26T20:57:35.391Z,98825.47
2023-03-26T21:00:39.688Z,98827.06
2023-03-26T21:03:42.454Z,98815.28
2023-03-26T21:06:45.625Z,98807.13
2023-03-26T21:09:48.926Z,98796.66
2023-03-26T21:13:00.851Z,98801.38
2023-03-26T21:16:04.394Z,98803.25
2023-03-26T21:19:09.251Z,98797.94
2023-03-26T21:22:11.879Z,98795.75
2023-03-26T21:25:25.771Z,98802.28
2023-03-26T21:28:41.909Z,98815.41
2023-03-26T21:31:46.766Z,98830.38
2023-03-26T21:34:58.657Z,98837.09
2023-03-26T21:38:04.541Z,98846.88
2023-03-26T21:41:07.816Z,98850.84
2023-03-26T21:44:11.030Z,98848.13
2023-03-26T21:47:14.137Z,98849.50
2023-03-26T21:50:20.674Z,98866.22
2023-03-26T21:53:24.707Z,98868.75
2023-03-26T21:56:33.109Z,98860.38
2023-03-26T21:59:53.995Z,98848.34
2023-03-26T22:03:23.689Z,98842.06
2023-03-26T22:06:37.241Z,98840.75
2023-03-26T22:09:39.987Z,98842.59
2023-03-26T22:12:42.517Z,98835.25
2023-03-26T22:15:46.312Z,98834.44
2023-03-26T22:18:49.109Z,98828.75
2023-03-26T22:21:51.613Z,98825.00
2023-03-26T22:24:54.451Z,98829.84
2023-03-26T22:27:57.597Z,98822.97
2023-03-26T22:31:07.313Z,98822.41
2023-03-26T22:34:09.941Z,98817.88
2023-03-26T22:37:13.624Z,98819.31
2023-03-26T22:40:18.003Z,98822.38
2023-03-26T22:43:20.586Z,98820.66
2023-03-26T22:46:23.689Z,98813.88
2023-03-26T22:49:27.522Z,98802.34
2023-03-26T22:52:30.810Z,98796.19
2023-03-26T22:55:33.631Z,98799.59
2023-03-26T22:58:37.227Z,98789.50
2023-03-26T23:01:40.263Z,98791.63
2023-03-26T23:04:44.152Z,98785.00
2023-03-26T23:07:47.397Z,98779.84
2023-03-26T23:10:50.007Z,98779.25
2023-03-26T23:13:52.751Z,98776.63
2023-03-26T23:16:55.810Z,98776.41
2023-03-26T23:19:58.641Z,98769.81
2023-03-26T23:23:01.398Z,98759.88
2023-03-26T23:26:04.765Z,98768.22
2023-03-26T23:29:07.963Z,98762.97
2023-03-26T23:32:23.361Z,98757.66
2023-03-26T23:35:27.532Z,98752.69
2023-03-26T23:38:43.372Z,98761.38
2023-03-26T23:41:47.177Z,98755.50
2023-03-26T23:44:49.759Z,98750.56
2023-03-26T23:47:52.336Z,98736.28
2023-03-26T23:51:04.016Z,98720.69
2023-03-26T23:54:08.840Z,98703.38
2023-03-26T23:57:11.901Z,98712.13
